sensor_id;sensor_type;location;lat;lon;timestamp;P1;durP1;ratioP1;P2;durP2;ratioP2
3567;SDS011;1798;48.486;9.232;2024-01-16T00:00:14;9.43;;;5.43;;
3567;SDS011;1798;48.486;9.232;2024-01-16T00:02:41;10.33;;;5.30;;
3567;SDS011;1798;48.486;9.232;2024-01-16T00:05:08;16.37;;;6.43;;
3567;SDS011;1798;48.486;9.232;2024-01-16T00:07:36;14.00;;;7.33;;
3567;SDS011;1798;48.486;9.232;2024-01-16T00:10:06;10.60;;;6.10;;
3567;SDS011;1798;48.486;9.232;2024-01-16T00:12:33;14.90;;;6.67;;
3567;SDS011;1798;48.486;9.232;2024-01-16T00:15:00;12.50;;;6.17;;
3567;SDS011;1798;48.486;9.232;2024-01-16T00:17:28;7.80;;;5.20;;
3567;SDS011;1798;48.486;9.232;2024-01-16T00:19:55;11.50;;;6.10;;
3567;SDS011;1798;48.486;9.232;2024-01-16T00:22:25;17.67;;;6.27;;
3567;SDS011;1798;48.486;9.232;2024-01-16T00:24:52;16.37;;;7.10;;
3567;SDS011;1798;48.486;9.232;2024-01-16T00:27:18;14.83;;;6.73;;
3567;SDS011;1798;48.486;9.232;2024-01-16T00:29:45;10.20;;;5.90;;
3567;SDS011;1798;48.486;9.232;2024-01-16T00:32:11;13.07;;;7.13;;
3567;SDS011;1798;48.486;9.232;2024-01-16T00:34:42;15.90;;;6.43;;
3567;SDS011;1798;48.486;9.232;2024-01-16T00:37:09;13.03;;;6.77;;
3567;SDS011;1798;48.486;9.232;2024-01-16T00:39:35;25.73;;;6.93;;
3567;SDS011;1798;48.486;9.232;2024-01-16T00:42:02;13.40;;;7.13;;
3567;SDS011;1798;48.486;9.232;2024-01-16T00:44:29;9.20;;;6.00;;
3567;SDS011;1798;48.486;9.232;2024-01-16T00:46:56;18.20;;;6.03;;
3567;SDS011;1798;48.486;9.232;2024-01-16T00:49:22;13.80;;;7.00;;
3567;SDS011;1798;48.486;9.232;2024-01-16T00:51:50;11.23;;;5.67;;
3567;SDS011;1798;48.486;9.232;2024-01-16T00:54:17;11.77;;;6.37;;
3567;SDS011;1798;48.486;9.232;2024-01-16T00:56:43;14.10;;;6.37;;
3567;SDS011;1798;48.486;9.232;2024-01-16T00:59:10;12.53;;;5.70;;
3567;SDS011;1798;48.486;9.232;2024-01-16T01:01:37;13.90;;;6.83;;
3567;SDS011;1798;48.486;9.232;2024-01-16T01:04:03;9.83;;;5.10;;
3567;SDS011;1798;48.486;9.232;2024-01-16T01:06:30;14.40;;;6.97;;
3567;SDS011;1798;48.486;9.232;2024-01-16T01:08:58;9.77;;;6.40;;
3567;SDS011;1798;48.486;9.232;2024-01-16T01:11:25;10.87;;;5.87;;
3567;SDS011;1798;48.486;9.232;2024-01-16T01:13:52;9.60;;;5.93;;
3567;SDS011;1798;48.486;9.232;2024-01-16T01:16:18;13.60;;;7.37;;
3567;SDS011;1798;48.486;9.232;2024-01-16T01:18:45;11.10;;;6.33;;
3567;SDS011;1798;48.486;9.232;2024-01-16T01:21:12;12.70;;;6.93;;
3567;SDS011;1798;48.486;9.232;2024-01-16T01:23:38;10.67;;;5.70;;
3567;SDS011;1798;48.486;9.232;2024-01-16T01:26:06;13.40;;;6.83;;
3567;SDS011;1798;48.486;9.232;2024-01-16T01:28:33;15.23;;;7.03;;
3567;SDS011;1798;48.486;9.232;2024-01-16T01:31:00;11.67;;;5.53;;
3567;SDS011;1798;48.486;9.232;2024-01-16T01:33:26;12.73;;;5.93;;
3567;SDS011;1798;48.486;9.232;2024-01-16T01:35:53;9.70;;;5.33;;
3567;SDS011;1798;48.486;9.232;2024-01-16T01:38:19;13.63;;;6.43;;
3567;SDS011;1798;48.486;9.232;2024-01-16T01:40:46;8.97;;;4.80;;
3567;SDS011;1798;48.486;9.232;2024-01-16T01:43:23;11.47;;;5.83;;
3567;SDS011;1798;48.486;9.232;2024-01-16T01:45:56;11.27;;;5.70;;
3567;SDS011;1798;48.486;9.232;2024-01-16T01:48:28;24.40;;;5.87;;
3567;SDS011;1798;48.486;9.232;2024-01-16T01:50:57;8.83;;;5.40;;
3567;SDS011;1798;48.486;9.232;2024-01-16T01:53:23;9.53;;;5.50;;
3567;SDS011;1798;48.486;9.232;2024-01-16T01:55:50;13.50;;;6.00;;
3567;SDS011;1798;48.486;9.232;2024-01-16T01:58:16;13.50;;;6.97;;
3567;SDS011;1798;48.486;9.232;2024-01-16T02:00:44;11.90;;;6.00;;
3567;SDS011;1798;48.486;9.232;2024-01-16T02:03:11;9.50;;;5.50;;
3567;SDS011;1798;48.486;9.232;2024-01-16T02:05:38;11.57;;;5.70;;
3567;SDS011;1798;48.486;9.232;2024-01-16T02:08:05;12.17;;;6.30;;
3567;SDS011;1798;48.486;9.232;2024-01-16T02:10:32;21.93;;;6.60;;
3567;SDS011;1798;48.486;9.232;2024-01-16T02:12:59;11.70;;;5.37;;
3567;SDS011;1798;48.486;9.232;2024-01-16T02:15:26;13.13;;;5.40;;
3567;SDS011;1798;48.486;9.232;2024-01-16T02:17:54;10.10;;;5.63;;
3567;SDS011;1798;48.486;9.232;2024-01-16T02:20:20;13.83;;;5.50;;
3567;SDS011;1798;48.486;9.232;2024-01-16T02:22:47;8.70;;;4.93;;
3567;SDS011;1798;48.486;9.232;2024-01-16T02:25:16;10.43;;;5.73;;
3567;SDS011;1798;48.486;9.232;2024-01-16T02:27:42;23.70;;;6.83;;
3567;SDS011;1798;48.486;9.232;2024-01-16T02:30:09;9.03;;;5.33;;
3567;SDS011;1798;48.486;9.232;2024-01-16T02:32:36;11.30;;;6.00;;
3567;SDS011;1798;48.486;9.232;2024-01-16T02:35:03;13.27;;;6.10;;
3567;SDS011;1798;48.486;9.232;2024-01-16T02:37:30;12.00;;;6.10;;
3567;SDS011;1798;48.486;9.232;2024-01-16T02:39:56;17.80;;;6.70;;
3567;SDS011;1798;48.486;9.232;2024-01-16T02:42:24;10.97;;;5.60;;
3567;SDS011;1798;48.486;9.232;2024-01-16T02:44:50;10.67;;;5.40;;
3567;SDS011;1798;48.486;9.232;2024-01-16T02:47:17;17.93;;;7.47;;
3567;SDS011;1798;48.486;9.232;2024-01-16T02:49:43;12.33;;;5.80;;
3567;SDS011;1798;48.486;9.232;2024-01-16T02:52:10;11.77;;;4.90;;
3567;SDS011;1798;48.486;9.232;2024-01-16T02:54:36;12.77;;;6.03;;
3567;SDS011;1798;48.486;9.232;2024-01-16T02:57:03;9.67;;;5.70;;
3567;SDS011;1798;48.486;9.232;2024-01-16T02:59:31;20.67;;;6.73;;
3567;SDS011;1798;48.486;9.232;2024-01-16T03:01:58;15.20;;;5.70;;
3567;SDS011;1798;48.486;9.232;2024-01-16T03:04:24;18.07;;;6.30;;
3567;SDS011;1798;48.486;9.232;2024-01-16T03:06:51;15.50;;;5.83;;
3567;SDS011;1798;48.486;9.232;2024-01-16T03:09:18;25.43;;;6.70;;
3567;SDS011;1798;48.486;9.232;2024-01-16T03:11:44;13.77;;;4.90;;
3567;SDS011;1798;48.486;9.232;2024-01-16T03:14:11;11.73;;;6.40;;
3567;SDS011;1798;48.486;9.232;2024-01-16T03:16:39;12.07;;;6.07;;
3567;SDS011;1798;48.486;9.232;2024-01-16T03:19:06;17.00;;;6.50;;
3567;SDS011;1798;48.486;9.232;2024-01-16T03:21:32;11.80;;;6.20;;
3567;SDS011;1798;48.486;9.232;2024-01-16T03:23:59;10.40;;;5.50;;
3567;SDS011;1798;48.486;9.232;2024-01-16T03:26:25;12.83;;;7.63;;
3567;SDS011;1798;48.486;9.232;2024-01-16T03:28:52;9.90;;;5.50;;
3567;SDS011;1798;48.486;9.232;2024-01-16T03:31:19;12.80;;;6.47;;
3567;SDS011;1798;48.486;9.232;2024-01-16T03:33:48;16.90;;;5.90;;
3567;SDS011;1798;48.486;9.232;2024-01-16T03:36:15;17.67;;;5.77;;
3567;SDS011;1798;48.486;9.232;2024-01-16T03:38:42;13.30;;;6.47;;
3567;SDS011;1798;48.486;9.232;2024-01-16T03:41:10;19.43;;;5.93;;
3567;SDS011;1798;48.486;9.232;2024-01-16T03:43:37;11.60;;;6.77;;
3567;SDS011;1798;48.486;9.232;2024-01-16T03:46:03;8.60;;;4.70;;
3567;SDS011;1798;48.486;9.232;2024-01-16T03:48:30;11.00;;;5.40;;
3567;SDS011;1798;48.486;9.232;2024-01-16T03:50:58;9.33;;;4.87;;
3567;SDS011;1798;48.486;9.232;2024-01-16T03:53:24;11.47;;;4.70;;
3567;SDS011;1798;48.486;9.232;2024-01-16T03:55:51;13.43;;;6.10;;
3567;SDS011;1798;48.486;9.232;2024-01-16T03:58:18;15.03;;;5.47;;
3567;SDS011;1798;48.486;9.232;2024-01-16T04:00:44;14.53;;;5.60;;
3567;SDS011;1798;48.486;9.232;2024-01-16T04:03:11;8.77;;;4.40;;
3567;SDS011;1798;48.486;9.232;2024-01-16T04:05:38;17.07;;;6.33;;
3567;SDS011;1798;48.486;9.232;2024-01-16T04:08:06;8.13;;;5.13;;
3567;SDS011;1798;48.486;9.232;2024-01-16T04:10:33;8.50;;;4.90;;
3567;SDS011;1798;48.486;9.232;2024-01-16T04:13:00;14.90;;;5.70;;
3567;SDS011;1798;48.486;9.232;2024-01-16T04:15:26;15.00;;;5.90;;
3567;SDS011;1798;48.486;9.232;2024-01-16T04:17:53;12.63;;;6.50;;
3567;SDS011;1798;48.486;9.232;2024-01-16T04:20:20;18.83;;;5.67;;
3567;SDS011;1798;48.486;9.232;2024-01-16T04:22:46;9.10;;;5.33;;
3567;SDS011;1798;48.486;9.232;2024-01-16T04:25:14;13.77;;;6.27;;
3567;SDS011;1798;48.486;9.232;2024-01-16T04:27:41;11.33;;;5.63;;
3567;SDS011;1798;48.486;9.232;2024-01-16T04:30:08;19.60;;;4.87;;
3567;SDS011;1798;48.486;9.232;2024-01-16T04:32:35;10.40;;;5.30;;
3567;SDS011;1798;48.486;9.232;2024-01-16T04:35:02;8.20;;;4.33;;
3567;SDS011;1798;48.486;9.232;2024-01-16T04:37:29;11.90;;;5.27;;
3567;SDS011;1798;48.486;9.232;2024-01-16T04:39:55;15.73;;;5.37;;
3567;SDS011;1798;48.486;9.232;2024-01-16T04:42:24;16.03;;;4.60;;
3567;SDS011;1798;48.486;9.232;2024-01-16T04:44:51;11.70;;;4.10;;
3567;SDS011;1798;48.486;9.232;2024-01-16T04:47:17;10.70;;;4.97;;
3567;SDS011;1798;48.486;9.232;2024-01-16T04:49:44;16.03;;;6.37;;
3567;SDS011;1798;48.486;9.232;2024-01-16T04:52:10;16.83;;;5.13;;
3567;SDS011;1798;48.486;9.232;2024-01-16T04:54:37;14.47;;;5.30;;
3567;SDS011;1798;48.486;9.232;2024-01-16T04:57:03;8.63;;;4.63;;
3567;SDS011;1798;48.486;9.232;2024-01-16T04:59:32;11.07;;;5.70;;
3567;SDS011;1798;48.486;9.232;2024-01-16T05:01:58;9.53;;;4.90;;
3567;SDS011;1798;48.486;9.232;2024-01-16T05:04:26;17.67;;;4.83;;
3567;SDS011;1798;48.486;9.232;2024-01-16T05:06:52;12.90;;;5.10;;
3567;SDS011;1798;48.486;9.232;2024-01-16T05:09:20;11.40;;;5.20;;
3567;SDS011;1798;48.486;9.232;2024-01-16T05:11:46;16.43;;;5.80;;
3567;SDS011;1798;48.486;9.232;2024-01-16T05:14:13;15.80;;;5.37;;
3567;SDS011;1798;48.486;9.232;2024-01-16T05:16:41;12.17;;;4.83;;
3567;SDS011;1798;48.486;9.232;2024-01-16T05:19:07;9.87;;;4.57;;
3567;SDS011;1798;48.486;9.232;2024-01-16T05:21:34;15.20;;;6.10;;
3567;SDS011;1798;48.486;9.232;2024-01-16T05:24:01;10.30;;;5.23;;
3567;SDS011;1798;48.486;9.232;2024-01-16T05:26:27;9.33;;;4.90;;
3567;SDS011;1798;48.486;9.232;2024-01-16T05:28:54;13.57;;;7.30;;
3567;SDS011;1798;48.486;9.232;2024-01-16T05:31:20;14.23;;;6.10;;
3567;SDS011;1798;48.486;9.232;2024-01-16T05:33:48;12.90;;;6.30;;
3567;SDS011;1798;48.486;9.232;2024-01-16T05:36:15;13.20;;;5.50;;
3567;SDS011;1798;48.486;9.232;2024-01-16T05:38:41;9.93;;;5.70;;
3567;SDS011;1798;48.486;9.232;2024-01-16T05:41:08;20.53;;;6.47;;
3567;SDS011;1798;48.486;9.232;2024-01-16T05:43:35;12.97;;;5.83;;
3567;SDS011;1798;48.486;9.232;2024-01-16T05:46:02;12.80;;;5.60;;
3567;SDS011;1798;48.486;9.232;2024-01-16T05:48:28;18.53;;;6.03;;
3567;SDS011;1798;48.486;9.232;2024-01-16T05:50:56;12.90;;;5.53;;
3567;SDS011;1798;48.486;9.232;2024-01-16T05:53:23;11.03;;;6.20;;
3567;SDS011;1798;48.486;9.232;2024-01-16T05:55:50;11.20;;;5.47;;
3567;SDS011;1798;48.486;9.232;2024-01-16T05:58:16;15.80;;;4.67;;
3567;SDS011;1798;48.486;9.232;2024-01-16T06:00:43;10.40;;;5.30;;
3567;SDS011;1798;48.486;9.232;2024-01-16T06:03:09;11.43;;;5.57;;
3567;SDS011;1798;48.486;9.232;2024-01-16T06:05:36;16.00;;;5.97;;
3567;SDS011;1798;48.486;9.232;2024-01-16T06:08:07;10.50;;;4.40;;
3567;SDS011;1798;48.486;9.232;2024-01-16T06:10:34;14.73;;;5.80;;
3567;SDS011;1798;48.486;9.232;2024-01-16T06:13:01;32.77;;;5.90;;
3567;SDS011;1798;48.486;9.232;2024-01-16T06:15:27;11.20;;;6.20;;
3567;SDS011;1798;48.486;9.232;2024-01-16T06:17:54;14.07;;;5.13;;
3567;SDS011;1798;48.486;9.232;2024-01-16T06:20:20;8.93;;;5.20;;
3567;SDS011;1798;48.486;9.232;2024-01-16T06:22:49;13.03;;;5.73;;
3567;SDS011;1798;48.486;9.232;2024-01-16T06:25:17;8.73;;;5.00;;
3567;SDS011;1798;48.486;9.232;2024-01-16T06:27:43;7.73;;;4.60;;
3567;SDS011;1798;48.486;9.232;2024-01-16T06:30:10;10.50;;;4.80;;
3567;SDS011;1798;48.486;9.232;2024-01-16T06:32:38;10.90;;;5.40;;
3567;SDS011;1798;48.486;9.232;2024-01-16T06:35:05;15.27;;;5.73;;
3567;SDS011;1798;48.486;9.232;2024-01-16T06:37:32;16.83;;;7.03;;
3567;SDS011;1798;48.486;9.232;2024-01-16T06:39:59;13.83;;;5.83;;
3567;SDS011;1798;48.486;9.232;2024-01-16T06:42:27;17.13;;;6.60;;
3567;SDS011;1798;48.486;9.232;2024-01-16T06:44:54;14.03;;;5.27;;
3567;SDS011;1798;48.486;9.232;2024-01-16T06:47:20;20.53;;;5.73;;
3567;SDS011;1798;48.486;9.232;2024-01-16T06:49:48;19.50;;;7.87;;
3567;SDS011;1798;48.486;9.232;2024-01-16T06:52:15;21.87;;;6.97;;
3567;SDS011;1798;48.486;9.232;2024-01-16T06:54:41;10.77;;;5.60;;
3567;SDS011;1798;48.486;9.232;2024-01-16T06:57:08;13.67;;;5.87;;
3567;SDS011;1798;48.486;9.232;2024-01-16T06:59:36;15.30;;;6.33;;
3567;SDS011;1798;48.486;9.232;2024-01-16T07:02:03;12.00;;;6.23;;
3567;SDS011;1798;48.486;9.232;2024-01-16T07:04:30;21.60;;;5.70;;
3567;SDS011;1798;48.486;9.232;2024-01-16T07:06:57;13.23;;;5.63;;
3567;SDS011;1798;48.486;9.232;2024-01-16T07:09:24;11.13;;;6.03;;
3567;SDS011;1798;48.486;9.232;2024-01-16T07:11:52;12.27;;;6.30;;
3567;SDS011;1798;48.486;9.232;2024-01-16T07:14:19;14.90;;;6.40;;
3567;SDS011;1798;48.486;9.232;2024-01-16T07:16:47;28.20;;;6.90;;
3567;SDS011;1798;48.486;9.232;2024-01-16T07:19:14;15.50;;;6.63;;
3567;SDS011;1798;48.486;9.232;2024-01-16T07:21:41;14.37;;;7.97;;
3567;SDS011;1798;48.486;9.232;2024-01-16T07:24:09;17.97;;;8.60;;
3567;SDS011;1798;48.486;9.232;2024-01-16T07:26:37;15.57;;;8.80;;
3567;SDS011;1798;48.486;9.232;2024-01-16T07:29:04;20.23;;;7.50;;
3567;SDS011;1798;48.486;9.232;2024-01-16T07:31:30;14.77;;;6.40;;
3567;SDS011;1798;48.486;9.232;2024-01-16T07:33:59;14.13;;;7.20;;
3567;SDS011;1798;48.486;9.232;2024-01-16T07:36:25;15.43;;;7.57;;
3567;SDS011;1798;48.486;9.232;2024-01-16T07:38:52;14.00;;;6.60;;
3567;SDS011;1798;48.486;9.232;2024-01-16T07:41:18;15.27;;;7.73;;
3567;SDS011;1798;48.486;9.232;2024-01-16T07:43:45;9.60;;;5.83;;
3567;SDS011;1798;48.486;9.232;2024-01-16T07:46:11;23.47;;;5.87;;
3567;SDS011;1798;48.486;9.232;2024-01-16T07:48:38;13.80;;;6.03;;
3567;SDS011;1798;48.486;9.232;2024-01-16T07:51:06;13.43;;;7.13;;
3567;SDS011;1798;48.486;9.232;2024-01-16T07:53:33;20.43;;;6.60;;
3567;SDS011;1798;48.486;9.232;2024-01-16T07:55:59;15.93;;;5.93;;
3567;SDS011;1798;48.486;9.232;2024-01-16T07:58:26;10.63;;;6.00;;
3567;SDS011;1798;48.486;9.232;2024-01-16T08:00:53;11.70;;;6.90;;
3567;SDS011;1798;48.486;9.232;2024-01-16T08:03:20;24.10;;;10.63;;
3567;SDS011;1798;48.486;9.232;2024-01-16T08:05:46;27.50;;;9.20;;
3567;SDS011;1798;48.486;9.232;2024-01-16T08:08:14;22.90;;;10.20;;
3567;SDS011;1798;48.486;9.232;2024-01-16T08:10:41;17.77;;;8.67;;
3567;SDS011;1798;48.486;9.232;2024-01-16T08:13:08;40.73;;;11.47;;
3567;SDS011;1798;48.486;9.232;2024-01-16T08:15:35;24.97;;;9.13;;
3567;SDS011;1798;48.486;9.232;2024-01-16T08:18:02;38.00;;;12.07;;
3567;SDS011;1798;48.486;9.232;2024-01-16T08:20:29;36.93;;;13.33;;
3567;SDS011;1798;48.486;9.232;2024-01-16T08:22:55;29.80;;;11.60;;
3567;SDS011;1798;48.486;9.232;2024-01-16T08:25:23;38.10;;;10.53;;
3567;SDS011;1798;48.486;9.232;2024-01-16T08:27:50;35.10;;;10.73;;
3567;SDS011;1798;48.486;9.232;2024-01-16T08:30:16;30.23;;;12.83;;
3567;SDS011;1798;48.486;9.232;2024-01-16T08:32:43;30.67;;;12.40;;
3567;SDS011;1798;48.486;9.232;2024-01-16T08:35:10;25.67;;;11.17;;
3567;SDS011;1798;48.486;9.232;2024-01-16T08:37:37;25.27;;;8.70;;
3567;SDS011;1798;48.486;9.232;2024-01-16T08:40:04;15.30;;;7.60;;
3567;SDS011;1798;48.486;9.232;2024-01-16T08:42:40;22.10;;;9.43;;
3567;SDS011;1798;48.486;9.232;2024-01-16T08:45:07;18.33;;;7.73;;
3567;SDS011;1798;48.486;9.232;2024-01-16T08:47:38;14.10;;;7.97;;
3567;SDS011;1798;48.486;9.232;2024-01-16T08:50:05;25.27;;;8.60;;
3567;SDS011;1798;48.486;9.232;2024-01-16T08:52:34;21.17;;;8.57;;
3567;SDS011;1798;48.486;9.232;2024-01-16T08:55:00;18.93;;;7.60;;
3567;SDS011;1798;48.486;9.232;2024-01-16T08:57:29;28.37;;;9.10;;
3567;SDS011;1798;48.486;9.232;2024-01-16T08:59:56;21.03;;;8.90;;
3567;SDS011;1798;48.486;9.232;2024-01-16T09:02:23;18.33;;;8.30;;
3567;SDS011;1798;48.486;9.232;2024-01-16T09:04:53;11.10;;;6.60;;
3567;SDS011;1798;48.486;9.232;2024-01-16T09:07:20;20.73;;;8.70;;
3567;SDS011;1798;48.486;9.232;2024-01-16T09:09:47;15.47;;;7.77;;
3567;SDS011;1798;48.486;9.232;2024-01-16T09:12:14;15.43;;;7.73;;
3567;SDS011;1798;48.486;9.232;2024-01-16T09:14:41;21.90;;;8.63;;
3567;SDS011;1798;48.486;9.232;2024-01-16T09:17:09;21.77;;;8.20;;
3567;SDS011;1798;48.486;9.232;2024-01-16T09:19:36;20.03;;;8.07;;
3567;SDS011;1798;48.486;9.232;2024-01-16T09:22:04;15.63;;;7.53;;
3567;SDS011;1798;48.486;9.232;2024-01-16T09:24:34;11.00;;;6.57;;
3567;SDS011;1798;48.486;9.232;2024-01-16T09:27:00;17.20;;;7.83;;
3567;SDS011;1798;48.486;9.232;2024-01-16T09:29:31;13.20;;;5.97;;
3567;SDS011;1798;48.486;9.232;2024-01-16T09:31:58;16.27;;;8.20;;
3567;SDS011;1798;48.486;9.232;2024-01-16T09:34:26;16.90;;;8.77;;
3567;SDS011;1798;48.486;9.232;2024-01-16T09:36:53;27.57;;;8.87;;
3567;SDS011;1798;48.486;9.232;2024-01-16T09:39:24;21.37;;;8.83;;
3567;SDS011;1798;48.486;9.232;2024-01-16T09:41:51;20.33;;;9.00;;
3567;SDS011;1798;48.486;9.232;2024-01-16T09:44:17;21.80;;;10.47;;
3567;SDS011;1798;48.486;9.232;2024-01-16T09:46:44;18.90;;;8.70;;
3567;SDS011;1798;48.486;9.232;2024-01-16T09:49:12;22.67;;;10.13;;
3567;SDS011;1798;48.486;9.232;2024-01-16T09:51:42;17.40;;;8.80;;
3567;SDS011;1798;48.486;9.232;2024-01-16T09:54:09;20.40;;;9.73;;
3567;SDS011;1798;48.486;9.232;2024-01-16T09:56:37;23.37;;;11.20;;
3567;SDS011;1798;48.486;9.232;2024-01-16T09:59:08;54.70;;;10.17;;
3567;SDS011;1798;48.486;9.232;2024-01-16T10:01:35;18.93;;;8.20;;
3567;SDS011;1798;48.486;9.232;2024-01-16T10:04:02;33.20;;;11.63;;
3567;SDS011;1798;48.486;9.232;2024-01-16T10:06:29;30.70;;;11.10;;
3567;SDS011;1798;48.486;9.232;2024-01-16T10:08:59;20.80;;;7.70;;
3567;SDS011;1798;48.486;9.232;2024-01-16T10:11:26;21.20;;;9.43;;
3567;SDS011;1798;48.486;9.232;2024-01-16T10:13:52;23.07;;;9.90;;
3567;SDS011;1798;48.486;9.232;2024-01-16T10:16:19;24.83;;;8.80;;
3567;SDS011;1798;48.486;9.232;2024-01-16T10:18:48;22.60;;;9.20;;
3567;SDS011;1798;48.486;9.232;2024-01-16T10:21:19;24.07;;;9.47;;
3567;SDS011;1798;48.486;9.232;2024-01-16T10:23:48;20.67;;;9.70;;
3567;SDS011;1798;48.486;9.232;2024-01-16T10:26:17;21.33;;;9.77;;
3567;SDS011;1798;48.486;9.232;2024-01-16T10:28:44;18.60;;;9.40;;
3567;SDS011;1798;48.486;9.232;2024-01-16T10:31:11;23.60;;;9.50;;
3567;SDS011;1798;48.486;9.232;2024-01-16T10:33:39;20.00;;;10.17;;
3567;SDS011;1798;48.486;9.232;2024-01-16T10:36:09;14.00;;;7.20;;
3567;SDS011;1798;48.486;9.232;2024-01-16T10:38:38;22.13;;;11.43;;
3567;SDS011;1798;48.486;9.232;2024-01-16T10:41:06;15.13;;;8.27;;
3567;SDS011;1798;48.486;9.232;2024-01-16T10:43:36;19.80;;;8.97;;
3567;SDS011;1798;48.486;9.232;2024-01-16T10:46:06;17.07;;;7.90;;
3567;SDS011;1798;48.486;9.232;2024-01-16T10:48:34;17.13;;;8.97;;
3567;SDS011;1798;48.486;9.232;2024-01-16T10:51:02;21.90;;;8.83;;
3567;SDS011;1798;48.486;9.232;2024-01-16T10:53:30;18.97;;;10.30;;
3567;SDS011;1798;48.486;9.232;2024-01-16T10:55:59;14.03;;;8.10;;
3567;SDS011;1798;48.486;9.232;2024-01-16T10:58:27;14.40;;;7.67;;
3567;SDS011;1798;48.486;9.232;2024-01-16T11:01:01;15.63;;;8.10;;
3567;SDS011;1798;48.486;9.232;2024-01-16T11:03:33;19.13;;;11.43;;
3567;SDS011;1798;48.486;9.232;2024-01-16T11:06:02;23.60;;;8.50;;
3567;SDS011;1798;48.486;9.232;2024-01-16T11:08:31;24.87;;;11.73;;
3567;SDS011;1798;48.486;9.232;2024-01-16T11:10:59;40.40;;;14.57;;
3567;SDS011;1798;48.486;9.232;2024-01-16T11:13:25;51.20;;;16.67;;
3567;SDS011;1798;48.486;9.232;2024-01-16T11:15:52;35.60;;;18.50;;
3567;SDS011;1798;48.486;9.232;2024-01-16T11:18:20;42.40;;;15.23;;
3567;SDS011;1798;48.486;9.232;2024-01-16T11:20:47;50.57;;;15.60;;
3567;SDS011;1798;48.486;9.232;2024-01-16T11:23:14;49.77;;;13.73;;
3567;SDS011;1798;48.486;9.232;2024-01-16T11:25:41;37.20;;;14.67;;
3567;SDS011;1798;48.486;9.232;2024-01-16T11:28:08;22.30;;;10.77;;
3567;SDS011;1798;48.486;9.232;2024-01-16T11:30:37;37.53;;;11.00;;
3567;SDS011;1798;48.486;9.232;2024-01-16T11:33:03;31.80;;;15.93;;
3567;SDS011;1798;48.486;9.232;2024-01-16T11:35:35;25.97;;;11.77;;
3567;SDS011;1798;48.486;9.232;2024-01-16T11:38:04;23.50;;;11.57;;
3567;SDS011;1798;48.486;9.232;2024-01-16T11:40:34;56.87;;;15.27;;
3567;SDS011;1798;48.486;9.232;2024-01-16T11:46:02;26.20;;;10.60;;
3567;SDS011;1798;48.486;9.232;2024-01-16T11:48:30;27.20;;;13.33;;
3567;SDS011;1798;48.486;9.232;2024-01-16T11:50:58;31.33;;;10.93;;
3567;SDS011;1798;48.486;9.232;2024-01-16T11:53:32;32.73;;;14.13;;
3567;SDS011;1798;48.486;9.232;2024-01-16T11:56:10;29.97;;;10.67;;
3567;SDS011;1798;48.486;9.232;2024-01-16T11:58:54;22.37;;;8.40;;
3567;SDS011;1798;48.486;9.232;2024-01-16T12:01:26;28.37;;;11.70;;
3567;SDS011;1798;48.486;9.232;2024-01-16T12:04:01;22.90;;;11.10;;
3567;SDS011;1798;48.486;9.232;2024-01-16T12:06:30;24.53;;;11.13;;
3567;SDS011;1798;48.486;9.232;2024-01-16T12:09:10;33.83;;;10.70;;
3567;SDS011;1798;48.486;9.232;2024-01-16T12:11:37;28.73;;;12.37;;
3567;SDS011;1798;48.486;9.232;2024-01-16T12:14:03;27.73;;;12.67;;
3567;SDS011;1798;48.486;9.232;2024-01-16T12:16:30;17.70;;;8.43;;
3567;SDS011;1798;48.486;9.232;2024-01-16T12:19:03;30.13;;;9.83;;
3567;SDS011;1798;48.486;9.232;2024-01-16T12:21:39;17.47;;;9.43;;
3567;SDS011;1798;48.486;9.232;2024-01-16T12:24:07;33.93;;;14.00;;
3567;SDS011;1798;48.486;9.232;2024-01-16T12:26:34;52.17;;;10.37;;
3567;SDS011;1798;48.486;9.232;2024-01-16T12:29:06;24.10;;;11.33;;
3567;SDS011;1798;48.486;9.232;2024-01-16T12:31:34;22.23;;;10.50;;
3567;SDS011;1798;48.486;9.232;2024-01-16T12:34:06;28.40;;;11.60;;
3567;SDS011;1798;48.486;9.232;2024-01-16T12:36:34;58.50;;;10.13;;
3567;SDS011;1798;48.486;9.232;2024-01-16T12:39:02;21.50;;;7.03;;
3567;SDS011;1798;48.486;9.232;2024-01-16T12:41:30;13.67;;;5.60;;
3567;SDS011;1798;48.486;9.232;2024-01-16T12:43:59;12.60;;;7.27;;
3567;SDS011;1798;48.486;9.232;2024-01-16T12:46:26;14.10;;;5.87;;
3567;SDS011;1798;48.486;9.232;2024-01-16T12:48:53;12.10;;;5.53;;
3567;SDS011;1798;48.486;9.232;2024-01-16T12:51:26;79.23;;;9.20;;
3567;SDS011;1798;48.486;9.232;2024-01-16T12:53:53;21.23;;;10.47;;
3567;SDS011;1798;48.486;9.232;2024-01-16T12:56:21;28.57;;;9.17;;
3567;SDS011;1798;48.486;9.232;2024-01-16T12:58:48;20.17;;;10.37;;
3567;SDS011;1798;48.486;9.232;2024-01-16T13:01:26;28.13;;;11.13;;
3567;SDS011;1798;48.486;9.232;2024-01-16T13:03:54;21.50;;;9.67;;
3567;SDS011;1798;48.486;9.232;2024-01-16T13:06:21;17.63;;;8.47;;
3567;SDS011;1798;48.486;9.232;2024-01-16T13:08:48;20.53;;;10.07;;
3567;SDS011;1798;48.486;9.232;2024-01-16T13:11:17;30.10;;;8.27;;
3567;SDS011;1798;48.486;9.232;2024-01-16T13:13:47;21.63;;;10.33;;
3567;SDS011;1798;48.486;9.232;2024-01-16T13:16:14;31.60;;;10.57;;
3567;SDS011;1798;48.486;9.232;2024-01-16T13:18:42;24.07;;;9.50;;
3567;SDS011;1798;48.486;9.232;2024-01-16T13:21:08;17.03;;;9.37;;
3567;SDS011;1798;48.486;9.232;2024-01-16T13:23:35;19.60;;;9.83;;
3567;SDS011;1798;48.486;9.232;2024-01-16T13:26:02;22.60;;;8.23;;
3567;SDS011;1798;48.486;9.232;2024-01-16T13:28:29;20.83;;;8.57;;
3567;SDS011;1798;48.486;9.232;2024-01-16T13:30:58;24.10;;;9.70;;
3567;SDS011;1798;48.486;9.232;2024-01-16T13:33:24;31.23;;;8.77;;
3567;SDS011;1798;48.486;9.232;2024-01-16T13:35:53;23.20;;;9.30;;
3567;SDS011;1798;48.486;9.232;2024-01-16T13:38:20;15.20;;;7.83;;
3567;SDS011;1798;48.486;9.232;2024-01-16T13:40:47;28.93;;;10.33;;
3567;SDS011;1798;48.486;9.232;2024-01-16T13:43:15;18.10;;;9.33;;
3567;SDS011;1798;48.486;9.232;2024-01-16T13:45:42;15.03;;;9.03;;
3567;SDS011;1798;48.486;9.232;2024-01-16T13:48:10;26.03;;;7.83;;
3567;SDS011;1798;48.486;9.232;2024-01-16T13:50:36;24.27;;;10.20;;
3567;SDS011;1798;48.486;9.232;2024-01-16T13:53:05;24.43;;;8.70;;
3567;SDS011;1798;48.486;9.232;2024-01-16T13:55:39;26.80;;;8.93;;
3567;SDS011;1798;48.486;9.232;2024-01-16T13:58:06;22.17;;;9.80;;
3567;SDS011;1798;48.486;9.232;2024-01-16T14:00:35;16.03;;;8.30;;
3567;SDS011;1798;48.486;9.232;2024-01-16T14:03:02;19.90;;;9.57;;
3567;SDS011;1798;48.486;9.232;2024-01-16T14:05:33;19.17;;;10.43;;
3567;SDS011;1798;48.486;9.232;2024-01-16T14:08:01;17.73;;;9.63;;
3567;SDS011;1798;48.486;9.232;2024-01-16T14:10:28;19.87;;;8.50;;
3567;SDS011;1798;48.486;9.232;2024-01-16T14:12:54;18.80;;;10.17;;
3567;SDS011;1798;48.486;9.232;2024-01-16T14:15:21;22.80;;;8.73;;
3567;SDS011;1798;48.486;9.232;2024-01-16T14:17:49;18.13;;;8.70;;
3567;SDS011;1798;48.486;9.232;2024-01-16T14:20:16;18.00;;;8.30;;
3567;SDS011;1798;48.486;9.232;2024-01-16T14:22:47;22.67;;;9.90;;
3567;SDS011;1798;48.486;9.232;2024-01-16T14:25:14;20.83;;;9.87;;
3567;SDS011;1798;48.486;9.232;2024-01-16T14:27:44;16.00;;;9.20;;
3567;SDS011;1798;48.486;9.232;2024-01-16T14:30:12;16.77;;;7.90;;
3567;SDS011;1798;48.486;9.232;2024-01-16T14:32:40;18.47;;;9.60;;
3567;SDS011;1798;48.486;9.232;2024-01-16T14:35:08;20.27;;;8.53;;
3567;SDS011;1798;48.486;9.232;2024-01-16T14:37:35;15.03;;;7.70;;
3567;SDS011;1798;48.486;9.232;2024-01-16T14:40:05;14.40;;;7.90;;
3567;SDS011;1798;48.486;9.232;2024-01-16T14:42:37;15.80;;;8.50;;
3567;SDS011;1798;48.486;9.232;2024-01-16T14:45:04;25.20;;;9.00;;
3567;SDS011;1798;48.486;9.232;2024-01-16T14:47:36;18.67;;;8.73;;
3567;SDS011;1798;48.486;9.232;2024-01-16T14:50:03;20.60;;;8.97;;
3567;SDS011;1798;48.486;9.232;2024-01-16T14:52:30;22.47;;;7.10;;
3567;SDS011;1798;48.486;9.232;2024-01-16T14:54:58;19.17;;;9.80;;
3567;SDS011;1798;48.486;9.232;2024-01-16T14:57:26;20.77;;;8.20;;
3567;SDS011;1798;48.486;9.232;2024-01-16T14:59:55;15.17;;;8.07;;
3567;SDS011;1798;48.486;9.232;2024-01-16T15:02:22;23.50;;;6.77;;
3567;SDS011;1798;48.486;9.232;2024-01-16T15:04:48;12.07;;;6.57;;